Terminal Aerodrome Forecast
Issued by NWS Wilmington, NC

Home | Current Version | Previous Version | Text Only | Print | Product List | Glossary On
Versions: 1 2 3 4 5 6 7 8 9 10 11 12 13 14 15 16 17
000
FTUS42 KILM 252005 CCB
TAFFLO
TAF COR
KFLO 252005Z 2520/2618 19009KT P6SM VCSH SCT015 BKN025 BKN040
     FM260200 VRB04KT P6SM BKN015
     FM260400 23003KT 4SM BR BKN006
     FM261400 29011KT P6SM SCT030=

USA.gov is the U.S. government's official web portal to all federal, state and local government web resources and services.